Time;durP1;ratioP1;P1;durP2;ratioP2;P2;SDS_P1;SDS_P2;PMS_P1;PMS_P2;Temp;Humidity;BMP_temperature;BMP_pressure;BME280_temperature;BME280_humidity;BME280_pressure;Samples;Min_cycle;Max_cycle;Signal;HPM_P1;HPM_P2
2022/07/18 00:00:11;;;;;;;6.20;4.95;;;;;;;27.34;83.90;100118.97;5047438;28;20032;-75
2022/07/18 00:02:37;;;;;;;6.55;5.10;;;;;;;27.29;84.28;100123.22;5046990;28;20381;-72
2022/07/18 00:05:03;;;;;;;6.10;5.50;;;;;;;27.28;84.10;100131.59;5046266;28;20029;-73
2022/07/18 00:07:29;;;;;;;5.63;5.18;;;;;;;27.25;84.65;100122.06;5046320;28;20029;-73
2022/07/18 00:09:54;;;;;;;8.98;5.55;;;;;;;27.20;84.50;100127.38;5045438;28;20048;-73
2022/07/18 00:12:20;;;;;;;6.18;5.18;;;;;;;27.09;85.04;100130.09;5049473;28;20033;-74
2022/07/18 00:14:46;;;;;;;9.65;5.40;;;;;;;26.82;87.05;100124.28;5049674;28;20028;-72
2022/07/18 00:17:11;;;;;;;7.40;5.65;;;;;;;26.67;88.05;100130.16;5043997;28;20087;-74
2022/07/18 00:19:37;;;;;;;6.03;5.43;;;;;;;26.69;88.41;100127.19;5048492;28;20020;-73
2022/07/18 00:22:04;;;;;;;6.60;5.40;;;;;;;26.73;88.05;100125.69;5045457;28;20100;-73
2022/07/18 00:24:31;;;;;;;5.65;5.25;;;;;;;26.74;88.67;100130.06;5031567;28;20121;-72
2022/07/18 00:26:57;;;;;;;8.98;6.05;;;;;;;26.76;88.03;100127.91;5040673;28;20033;-71
2022/07/18 00:29:23;;;;;;;6.00;5.40;;;;;;;26.74;88.52;100124.63;5048327;28;20107;-72
2022/07/18 00:31:49;;;;;;;5.85;5.25;;;;;;;26.72;88.66;100134.88;5042982;28;20065;-75
2022/07/18 00:34:15;;;;;;;6.38;5.88;;;;;;;26.51;89.65;100130.03;5042453;28;20508;-75
2022/07/18 00:36:40;;;;;;;10.77;6.63;;;;;;;26.37;90.66;100132.94;5043141;28;20033;-75
2022/07/18 00:39:06;;;;;;;6.15;5.55;;;;;;;26.43;90.64;100128.47;5048331;28;20057;-75
2022/07/18 00:41:31;;;;;;;7.68;6.35;;;;;;;26.22;92.05;100131.66;5045652;28;20029;-74
2022/07/18 00:43:57;;;;;;;6.30;5.75;;;;;;;25.90;94.13;100133.78;5046228;28;20025;-73
2022/07/18 00:46:24;;;;;;;6.30;5.70;;;;;;;25.85;94.66;100139.06;5044894;28;20061;-75
2022/07/18 00:48:50;;;;;;;6.10;5.57;;;;;;;25.87;94.59;100134.22;5044983;28;20059;-75
2022/07/18 00:51:16;;;;;;;6.53;6.00;;;;;;;25.91;94.38;100140.84;5044963;28;20383;-74
2022/07/18 00:53:43;;;;;;;6.90;6.15;;;;;;;25.95;94.05;100137.47;5047205;28;20094;-74
2022/07/18 00:56:09;;;;;;;6.05;5.65;;;;;;;26.04;93.81;100146.88;5045180;28;20346;-74
2022/07/18 00:58:35;;;;;;;6.47;5.90;;;;;;;26.14;93.77;100142.81;5044380;28;20461;-74
2022/07/18 01:03:45;;;;;;;5.63;5.22;;;;;;;26.22;92.97;100148.72;5047994;28;20071;-74
2022/07/18 01:06:11;;;;;;;6.47;5.85;;;;;;;26.24;93.01;100141.25;5044612;28;20033;-74
2022/07/18 01:08:38;;;;;;;6.82;5.63;;;;;;;26.24;92.93;100145.81;5043671;28;20037;-74
2022/07/18 01:11:04;;;;;;;6.93;6.10;;;;;;;26.11;93.13;100146.78;5044269;28;20064;-74
2022/07/18 01:13:30;;;;;;;5.90;5.50;;;;;;;26.03;93.81;100149.84;5047318;28;20095;-75
2022/07/18 01:15:56;;;;;;;7.25;5.75;;;;;;;25.81;95.36;100151.34;5046513;28;20045;-74
2022/07/18 01:18:21;;;;;;;6.30;5.80;;;;;;;25.72;95.67;100144.63;5041866;28;20389;-74
2022/07/18 01:20:46;;;;;;;6.75;6.03;;;;;;;25.68;96.06;100146.97;5045031;28;20036;-74
2022/07/18 01:23:12;;;;;;;7.75;5.82;;;;;;;25.71;96.03;100151.06;5029610;28;20422;-74
2022/07/18 01:25:38;;;;;;;7.10;6.43;;;;;;;25.67;96.13;100148.00;5041748;28;20048;-74
2022/07/18 01:28:03;;;;;;;6.30;5.80;;;;;;;25.65;96.80;100142.81;5044747;28;20033;-75
2022/07/18 01:30:29;;;;;;;6.88;6.18;;;;;;;25.66;96.85;100149.06;5043394;28;20025;-74
2022/07/18 01:32:59;;;;;;;6.30;5.80;;;;;;;25.69;96.66;100149.41;5041856;28;20041;-74
2022/07/18 01:35:26;;;;;;;8.35;6.18;;;;;;;25.58;97.13;100146.66;5043618;28;20033;-74
2022/07/18 01:37:57;;;;;;;6.85;6.18;;;;;;;25.34;98.91;100151.03;5044242;28;20059;-74
2022/07/18 01:40:24;;;;;;;9.07;6.22;;;;;;;25.10;100.00;100151.91;5042964;28;20033;-72
2022/07/18 01:42:50;;;;;;;6.82;6.15;;;;;;;25.10;100.00;100154.63;5042937;28;20029;-73
2022/07/18 01:45:16;;;;;;;7.78;6.97;;;;;;;25.08;100.00;100151.34;5043945;28;20025;-72
2022/07/18 01:47:42;;;;;;;7.10;6.22;;;;;;;25.21;100.00;100152.00;5043882;28;20470;-72
2022/07/18 01:50:10;;;;;;;6.82;6.20;;;;;;;25.35;99.65;100158.09;5046952;28;20036;-72
2022/07/18 01:52:36;;;;;;;9.63;6.18;;;;;;;25.33;99.52;100157.50;5042522;28;20044;-72
2022/07/18 01:55:04;;;;;;;7.45;6.75;;;;;;;25.22;100.00;100153.66;5045184;28;20488;-72
2022/07/18 01:57:30;;;;;;;7.28;6.40;;;;;;;25.29;99.91;100156.28;5023959;28;20053;-72
2022/07/18 01:59:56;;;;;;;6.70;6.15;;;;;;;25.36;99.73;100159.75;5041380;28;20064;-72
2022/07/18 02:02:21;;;;;;;7.38;6.65;;;;;;;25.32;100.00;100161.28;5044210;28;20032;-72
2022/07/18 02:04:59;;;;;;;7.35;6.30;;;;;;;25.39;99.92;100164.69;5043890;28;20025;-73
2022/07/18 02:07:35;;;;;;;11.32;7.00;;;;;;;25.32;100.00;100160.44;5040202;28;20481;-73
2022/07/18 02:10:07;;;;;;;7.57;6.80;;;;;;;25.26;100.00;100159.47;5040025;28;20029;-73
2022/07/18 02:12:33;;;;;;;8.15;6.72;;;;;;;25.22;100.00;100159.06;5046672;28;20134;-73
2022/07/18 02:14:59;;;;;;;7.15;6.45;;;;;;;25.21;100.00;100162.00;5045312;28;20037;-73
2022/07/18 02:17:24;;;;;;;8.40;6.70;;;;;;;25.26;100.00;100159.47;5041364;28;20074;-73
2022/07/18 02:19:50;;;;;;;7.20;6.70;;;;;;;25.27;100.00;100166.53;5044225;28;20116;-72
2022/07/18 02:22:16;;;;;;;7.78;7.00;;;;;;;25.32;100.00;100161.28;5041064;28;20029;-73
2022/07/18 02:24:41;;;;;;;8.40;7.05;;;;;;;25.34;100.00;100172.66;5027993;28;20024;-73
2022/07/18 02:27:07;;;;;;;7.00;6.30;;;;;;;25.37;100.00;100172.22;5041378;28;20032;-75
2022/07/18 02:29:33;;;;;;;7.22;6.50;;;;;;;25.28;100.00;100168.16;5045371;28;20039;-75
2022/07/18 02:31:59;;;;;;;7.57;6.88;;;;;;;25.07;100.00;100166.72;5040279;28;20365;-75
2022/07/18 02:34:25;;;;;;;10.07;7.22;;;;;;;24.88;100.00;100173.06;5040467;28;20036;-75
2022/07/18 02:36:50;;;;;;;7.80;7.10;;;;;;;24.55;100.00;100173.34;5044776;28;20043;-74
2022/07/18 02:39:17;;;;;;;7.63;7.03;;;;;;;24.55;100.00;100177.91;5042777;28;20032;-72
2022/07/18 02:41:43;;;;;;;8.23;7.45;;;;;;;24.64;100.00;100172.00;5043667;28;20493;-74
2022/07/18 02:44:09;;;;;;;7.85;6.90;;;;;;;24.62;100.00;100173.28;5042229;28;20087;-73
2022/07/18 02:46:34;;;;;;;7.57;6.95;;;;;;;24.65;100.00;100179.06;5024844;28;20068;-73
2022/07/18 02:49:00;;;;;;;9.38;7.05;;;;;;;24.60;100.00;100181.59;5046533;28;20154;-73
2022/07/18 02:51:26;;;;;;;7.32;6.72;;;;;;;24.57;100.00;100170.41;5044938;28;20072;-73
2022/07/18 02:53:52;;;;;;;7.60;6.95;;;;;;;24.38;100.00;100177.59;5044608;28;20044;-73
2022/07/18 02:56:18;;;;;;;7.78;6.90;;;;;;;24.39;100.00;100180.06;5040629;28;20044;-74
2022/07/18 02:58:43;;;;;;;9.70;6.60;;;;;;;24.42;100.00;100176.13;5042639;28;20029;-73
2022/07/18 03:01:09;;;;;;;8.68;7.88;;;;;;;24.37;100.00;100181.34;5042260;28;20121;-73
2022/07/18 03:03:35;;;;;;;8.05;7.22;;;;;;;24.30;100.00;100185.94;5045481;28;20026;-73
2022/07/18 03:06:00;;;;;;;9.10;7.20;;;;;;;24.26;100.00;100190.97;5042568;28;20037;-73
2022/07/18 03:08:26;;;;;;;8.50;7.78;;;;;;;24.23;100.00;100190.53;5039630;28;20215;-74
2022/07/18 03:10:52;;;;;;;9.02;8.13;;;;;;;24.21;100.00;100189.94;5037786;28;20065;-74
2022/07/18 03:13:17;;;;;;;8.13;7.47;;;;;;;24.15;100.00;100194.28;5045817;28;20059;-75
2022/07/18 03:15:43;;;;;;;7.53;6.80;;;;;;;24.30;100.00;100194.03;5045901;28;20029;-74
2022/07/18 03:18:09;;;;;;;9.15;7.80;;;;;;;24.37;100.00;100202.91;5037862;28;20038;-74
2022/07/18 03:20:34;;;;;;;7.55;6.95;;;;;;;24.44;100.00;100192.94;5044390;28;20033;-74
2022/07/18 03:23:05;;;;;;;8.45;7.75;;;;;;;24.54;100.00;100193.28;5039324;28;20036;-72
2022/07/18 03:25:31;;;;;;;9.15;7.65;;;;;;;24.58;100.00;100193.66;5041717;28;20030;-74
2022/07/18 03:27:56;;;;;;;7.70;7.18;;;;;;;24.65;100.00;100202.53;5047121;28;20039;-74
2022/07/18 03:30:22;;;;;;;8.45;7.53;;;;;;;24.64;100.00;100196.31;5045650;28;20193;-74
2022/07/18 03:32:48;;;;;;;9.57;7.47;;;;;;;24.42;100.00;100197.69;5044876;28;20071;-74
2022/07/18 03:35:14;;;;;;;9.27;7.13;;;;;;;24.39;100.00;100195.41;5043084;28;20095;-74
2022/07/18 03:37:40;;;;;;;7.65;7.05;;;;;;;24.36;100.00;100196.69;5048335;28;20405;-74
2022/07/18 03:40:07;;;;;;;9.32;7.60;;;;;;;24.39;100.00;100200.81;5047835;28;20366;-73
2022/07/18 03:42:33;;;;;;;8.00;7.28;;;;;;;24.48;100.00;100194.13;5046932;28;20869;-74
2022/07/18 03:44:59;;;;;;;9.02;8.15;;;;;;;24.53;100.00;100194.31;5030700;28;20535;-73
2022/07/18 03:47:24;;;;;;;8.30;7.50;;;;;;;24.57;100.00;100198.22;5027967;28;20064;-74
2022/07/18 03:49:50;;;;;;;9.05;8.10;;;;;;;24.54;100.00;100203.22;5052089;28;20087;-73
2022/07/18 03:52:15;;;;;;;8.70;7.60;;;;;;;24.59;100.00;100201.53;5044798;28;20029;-73
2022/07/18 03:54:41;;;;;;;7.78;7.18;;;;;;;24.59;100.00;100206.94;5047458;28;20043;-74
2022/07/18 03:57:07;;;;;;;8.75;7.90;;;;;;;24.44;100.00;100201.03;5043938;28;20065;-74
2022/07/18 03:59:33;;;;;;;10.25;7.95;;;;;;;24.25;100.00;100196.56;5044377;28;20061;-75
2022/07/18 04:01:59;;;;;;;8.18;7.57;;;;;;;24.37;100.00;100201.06;5045304;28;20048;-73
2022/07/18 04:04:24;;;;;;;9.00;8.20;;;;;;;24.47;100.00;100208.66;5047774;28;20030;-73
2022/07/18 04:06:50;;;;;;;9.40;8.45;;;;;;;24.55;100.00;100205.72;5044419;28;20121;-73
2022/07/18 04:09:15;;;;;;;9.35;7.97;;;;;;;24.58;100.00;100210.66;5041020;28;20120;-74
2022/07/18 04:11:41;;;;;;;8.20;7.55;;;;;;;24.62;100.00;100211.06;5030279;28;20044;-73
2022/07/18 04:14:07;;;;;;;8.20;7.30;;;;;;;24.64;100.00;100215.19;5030824;28;20087;-73
2022/07/18 04:16:32;;;;;;;8.25;7.43;;;;;;;24.68;100.00;100211.00;5046624;28;20045;-74
2022/07/18 04:18:58;;;;;;;8.25;7.65;;;;;;;24.70;100.00;100208.91;5044979;28;20043;-75
2022/07/18 04:21:24;;;;;;;7.78;7.07;;;;;;;24.77;100.00;100209.69;5046080;28;20029;-74
2022/07/18 04:23:49;;;;;;;10.23;8.05;;;;;;;24.76;100.00;100213.44;5045961;28;20535;-73
2022/07/18 04:26:15;;;;;;;7.88;6.95;;;;;;;24.84;100.00;100210.50;5045624;28;20025;-74
2022/07/18 04:28:41;;;;;;;7.93;7.25;;;;;;;24.94;100.00;100222.69;5046169;28;20037;-74
2022/07/18 04:31:06;;;;;;;8.77;7.50;;;;;;;25.00;100.00;100219.09;5042647;28;20025;-74
2022/07/18 04:33:32;;;;;;;8.02;7.28;;;;;;;25.03;100.00;100216.81;5046310;28;20060;-74
2022/07/18 04:35:57;;;;;;;8.07;7.30;;;;;;;25.08;100.00;100216.16;5040083;28;20034;-74
2022/07/18 04:38:23;;;;;;;8.70;7.75;;;;;;;25.12;100.00;100220.03;5047308;28;20523;-73
2022/07/18 04:40:48;;;;;;;11.48;7.32;;;;;;;25.12;100.00;100225.44;5044440;28;20037;-73
2022/07/18 04:43:14;;;;;;;7.70;7.10;;;;;;;25.15;100.00;100223.13;5045209;28;20465;-74
2022/07/18 04:45:40;;;;;;;7.45;6.85;;;;;;;25.14;100.00;100220.66;5044923;28;20040;-74
2022/07/18 04:48:06;;;;;;;9.65;6.97;;;;;;;25.15;100.00;100222.31;5047505;28;20047;-74
2022/07/18 04:50:32;;;;;;;7.43;6.20;;;;;;;25.13;99.44;100227.09;5048204;28;20466;-74
2022/07/18 04:52:58;;;;;;;9.57;7.10;;;;;;;25.18;99.06;100232.66;5043996;28;20037;-74
2022/07/18 04:55:26;;;;;;;6.88;6.18;;;;;;;25.17;98.80;100236.41;5046016;28;20513;-73
2022/07/18 04:57:52;;;;;;;6.75;6.15;;;;;;;25.24;98.54;100231.78;5043365;28;20524;-74
2022/07/18 05:00:22;;;;;;;7.32;6.50;;;;;;;25.25;98.38;100231.56;5047021;28;20123;-74
2022/07/18 05:02:50;;;;;;;6.85;6.25;;;;;;;25.29;97.55;100229.22;5043564;28;20086;-74
2022/07/18 05:05:17;;;;;;;6.53;6.03;;;;;;;25.34;98.63;100225.84;5042661;28;20033;-74
2022/07/18 05:07:44;;;;;;;7.13;6.53;;;;;;;25.37;98.46;100225.44;5044956;28;20033;-73
2022/07/18 05:10:12;;;;;;;9.27;6.57;;;;;;;25.39;98.51;100234.94;5042316;28;20030;-74
2022/07/18 05:12:41;;;;;;;8.07;6.80;;;;;;;25.40;97.79;100236.59;5048317;28;20071;-75
2022/07/18 05:15:09;;;;;;;7.05;6.35;;;;;;;25.46;97.23;100235.72;5047004;28;20049;-76
2022/07/18 05:17:36;;;;;;;11.40;7.43;;;;;;;25.48;96.25;100238.19;5041829;28;20100;-77
2022/07/18 05:20:06;;;;;;;7.03;6.20;;;;;;;25.52;94.72;100234.81;5046199;28;20033;-76
2022/07/18 05:22:33;;;;;;;6.78;6.13;;;;;;;25.56;94.49;100235.22;5042354;28;20423;-76
2022/07/18 05:24:58;;;;;;;7.15;5.93;;;;;;;25.57;93.15;100243.13;5046490;28;20071;-75
2022/07/18 05:27:24;;;;;;;11.95;6.45;;;;;;;25.55;91.73;100239.78;5042076;28;20066;-76
2022/07/18 05:29:50;;;;;;;7.18;5.80;;;;;;;25.56;91.50;100246.03;5043292;28;20042;-79
2022/07/18 05:32:15;;;;;;;6.88;6.28;;;;;;;25.64;91.63;100245.75;5043495;28;20112;-79
2022/07/18 05:34:41;;;;;;;6.93;6.22;;;;;;;25.63;90.88;100246.78;5054899;28;20075;-78
2022/07/18 05:37:07;;;;;;;6.50;5.90;;;;;;;25.69;90.25;100245.91;5049996;28;20029;-81
2022/07/18 05:39:32;;;;;;;6.22;5.47;;;;;;;25.74;90.23;100248.78;5048323;28;20037;-81
2022/07/18 05:41:58;;;;;;;6.95;6.07;;;;;;;25.77;89.09;100252.91;5042718;28;20041;-75
2022/07/18 05:44:24;;;;;;;10.05;5.90;;;;;;;25.78;88.42;100255.38;5036397;28;20116;-75
2022/07/18 05:46:49;;;;;;;6.35;5.85;;;;;;;25.77;90.82;100252.91;5038468;28;20037;-76
2022/07/18 05:49:16;;;;;;;7.60;6.90;;;;;;;25.83;92.02;100258.22;5037278;28;20040;-77
2022/07/18 05:51:42;;;;;;;9.95;6.43;;;;;;;25.86;91.52;100265.88;5040880;28;20405;-75
2022/07/18 05:54:08;;;;;;;6.65;6.05;;;;;;;25.94;90.70;100256.66;5038426;28;20037;-77
2022/07/18 05:56:34;;;;;;;5.95;5.30;;;;;;;26.00;89.85;100263.88;5038864;28;20033;-77
2022/07/18 05:58:59;;;;;;;6.53;5.95;;;;;;;26.08;89.38;100267.09;5037057;28;20573;-77
2022/07/18 06:01:25;;;;;;;6.72;5.72;;;;;;;26.13;87.78;100262.88;5038142;28;20139;-75
2022/07/18 06:03:51;;;;;;;8.07;5.68;;;;;;;26.17;85.96;100264.91;5038165;28;20091;-75
2022/07/18 06:06:18;;;;;;;6.20;5.63;;;;;;;26.18;85.00;100265.72;5038119;28;20020;-75
2022/07/18 06:08:44;;;;;;;6.00;4.95;;;;;;;26.23;84.00;100264.03;5020745;28;20377;-75
2022/07/18 06:11:11;;;;;;;6.03;5.10;;;;;;;26.29;83.40;100263.13;5037375;28;20018;-76
2022/07/18 06:13:39;;;;;;;6.57;5.05;;;;;;;26.35;82.49;100259.50;5036818;28;20047;-75
2022/07/18 06:16:06;;;;;;;5.78;4.88;;;;;;;26.41;82.02;100261.28;5026139;28;20384;-73
2022/07/18 06:18:34;;;;;;;7.10;4.80;;;;;;;26.44;82.05;100254.59;4687540;28;10000483;-73
2022/07/18 06:21:01;;;;;;;6.00;5.50;;;;;;;26.48;81.89;100262.03;5035103;28;20554;-74
2022/07/18 06:23:28;;;;;;;8.60;5.38;;;;;;;26.56;81.78;100268.19;5035658;28;20660;-73
2022/07/18 06:25:54;;;;;;;8.25;4.90;;;;;;;26.59;80.63;100262.28;5041502;28;20380;-73
2022/07/18 06:28:20;;;;;;;5.30;4.80;;;;;;;26.60;80.67;100269.38;5042846;28;20082;-72
2022/07/18 06:30:46;;;;;;;5.90;5.00;;;;;;;26.64;80.79;100265.13;5039222;28;20136;-73
2022/07/18 06:33:13;;;;;;;6.38;4.43;;;;;;;26.72;80.88;100251.28;5040568;28;20028;-71
2022/07/18 06:35:40;;;;;;;5.28;4.43;;;;;;;26.81;80.06;100260.72;5035456;28;20050;-72
2022/07/18 06:38:05;;;;;;;8.73;5.22;;;;;;;26.86;79.76;100266.28;5037110;28;20481;-71
2022/07/18 06:40:31;;;;;;;6.72;4.97;;;;;;;26.91;79.73;100263.72;5042784;28;20038;-73
2022/07/18 06:42:57;;;;;;;8.60;4.53;;;;;;;26.96;79.30;100257.63;5041980;28;20498;-71
2022/07/18 06:45:24;;;;;;;7.82;5.22;;;;;;;27.04;78.62;100268.13;4675889;28;9999919;-73
2022/07/18 06:48:16;;;;;;;7.20;4.57;;;;;;;27.09;77.57;100255.53;5039206;28;20044;-73
2022/07/18 06:50:42;;;;;;;7.68;4.85;;;;;;;27.09;77.45;100260.94;5043792;28;20175;-72
2022/07/18 06:53:08;;;;;;;6.72;4.85;;;;;;;27.08;77.21;100261.16;5041839;28;20034;-74
2022/07/18 06:55:33;;;;;;;4.88;4.47;;;;;;;27.14;77.19;100260.25;5041401;28;20036;-72
2022/07/18 06:57:59;;;;;;;4.93;4.50;;;;;;;27.20;77.31;100265.56;5040065;28;20059;-72
2022/07/18 07:00:26;;;;;;;8.70;5.05;;;;;;;27.22;76.38;100258.00;5046588;28;20052;-73
2022/07/18 07:02:52;;;;;;;6.25;5.22;;;;;;;27.18;75.88;100269.53;5043846;28;20029;-73
2022/07/18 07:05:19;;;;;;;7.32;4.93;;;;;;;27.16;76.27;100269.75;5044102;28;20025;-73
2022/07/18 07:07:45;;;;;;;7.50;4.40;;;;;;;27.18;76.36;100273.06;5046110;28;20044;-73
2022/07/18 07:10:12;;;;;;;6.30;4.63;;;;;;;27.22;76.62;100266.13;5043111;28;20123;-74
2022/07/18 07:12:42;;;;;;;6.72;4.72;;;;;;;27.22;75.43;100274.25;5044392;28;20057;-74
2022/07/18 07:15:08;;;;;;;5.20;4.78;;;;;;;27.31;75.41;100277.44;5042923;28;20477;-73
2022/07/18 07:17:35;;;;;;;6.85;5.28;;;;;;;27.40;75.00;100277.91;5044059;28;20029;-73
2022/07/18 07:20:02;;;;;;;7.32;4.70;;;;;;;27.47;74.52;100281.34;5040594;28;20112;-72
2022/07/18 07:22:28;;;;;;;5.03;4.50;;;;;;;27.57;73.48;100276.19;5040037;28;20037;-72
2022/07/18 07:24:53;;;;;;;6.90;4.63;;;;;;;27.63;72.83;100280.66;5044215;28;20037;-73
2022/07/18 07:27:19;;;;;;;6.65;4.65;;;;;;;27.71;72.75;100280.31;5044465;28;20088;-74
2022/07/18 07:29:44;;;;;;;6.05;4.80;;;;;;;27.77;71.88;100276.66;5044218;28;20033;-73
2022/07/18 07:32:10;;;;;;;5.25;4.32;;;;;;;27.83;71.74;100275.69;5041562;28;20136;-73
2022/07/18 07:34:35;;;;;;;6.47;4.93;;;;;;;27.85;70.86;100272.75;5041248;28;20820;-73
2022/07/18 07:37:01;;;;;;;6.45;4.53;;;;;;;27.89;70.47;100274.75;5043349;28;20037;-72
2022/07/18 07:39:27;;;;;;;6.88;4.60;;;;;;;27.95;69.43;100281.94;5041283;28;20064;-73
2022/07/18 07:41:52;;;;;;;4.70;4.30;;;;;;;28.01;69.04;100278.28;5042361;28;20056;-73
2022/07/18 07:44:18;;;;;;;8.75;4.47;;;;;;;28.09;68.35;100280.63;5039963;28;20029;-73
2022/07/18 07:46:43;;;;;;;7.72;4.50;;;;;;;28.13;67.86;100272.00;5042199;28;20361;-73
2022/07/18 07:49:08;;;;;;;10.10;5.22;;;;;;;28.17;68.02;100270.47;5048071;28;20104;-74
2022/07/18 07:51:34;;;;;;;7.10;5.07;;;;;;;28.24;67.70;100269.28;5040426;28;20445;-74
2022/07/18 07:54:00;;;;;;;5.63;3.95;;;;;;;28.30;67.14;100271.03;5043570;28;20059;-74
2022/07/18 07:56:25;;;;;;;10.30;4.68;;;;;;;28.31;64.91;100267.25;5039521;28;20065;-72
2022/07/18 07:58:51;;;;;;;5.28;3.95;;;;;;;28.38;64.59;100272.53;5043464;28;20052;-72
2022/07/18 08:01:19;;;;;;;4.75;4.10;;;;;;;28.43;64.67;100272.63;5047718;28;20036;-72
2022/07/18 08:03:48;;;;;;;7.50;4.07;;;;;;;28.48;65.13;100270.00;5047692;28;20029;-71
2022/07/18 08:06:14;;;;;;;7.63;4.40;;;;;;;28.51;64.32;100266.81;5046674;28;20553;-72
2022/07/18 08:08:40;;;;;;;13.38;5.57;;;;;;;28.54;64.24;100268.22;5047900;28;20046;-72
2022/07/18 08:11:12;;;;;;;6.67;4.55;;;;;;;28.62;64.90;100268.66;4927006;28;10000598;-72
2022/07/18 08:13:37;;;;;;;4.82;4.43;;;;;;;28.67;64.96;100274.19;5048232;28;20742;-73
2022/07/18 08:16:03;;;;;;;5.22;4.68;;;;;;;28.67;65.32;100266.03;5048698;28;20512;-73
2022/07/18 08:18:29;;;;;;;5.75;4.70;;;;;;;28.69;64.52;100273.91;5047627;28;20118;-72
2022/07/18 08:20:54;;;;;;;6.55;4.70;;;;;;;28.70;64.29;100264.72;5046065;28;20036;-73
2022/07/18 08:23:20;;;;;;;5.78;4.70;;;;;;;28.68;64.36;100261.44;5048468;28;20067;-73
2022/07/18 08:25:47;;;;;;;6.90;4.53;;;;;;;28.73;65.14;100258.81;5048535;28;20099;-73
2022/07/18 08:28:13;;;;;;;7.28;4.45;;;;;;;28.82;65.53;100258.19;5047993;28;20037;-73
2022/07/18 08:30:39;;;;;;;7.53;4.35;;;;;;;28.87;65.20;100260.97;5048431;28;20083;-73
2022/07/18 08:33:06;;;;;;;5.47;4.65;;;;;;;28.85;64.27;100257.69;5046684;28;20033;-72
2022/07/18 08:35:33;;;;;;;7.55;4.20;;;;;;;28.86;64.56;100256.59;5048272;28;20043;-73
2022/07/18 08:37:59;;;;;;;4.78;4.38;;;;;;;28.93;64.59;100256.44;5048830;28;20066;-73
2022/07/18 08:40:25;;;;;;;5.13;4.63;;;;;;;29.01;64.27;100245.19;5027652;28;20037;-72
2022/07/18 08:42:53;;;;;;;5.20;4.65;;;;;;;29.11;62.70;100247.25;5047705;28;20032;-72
2022/07/18 08:45:21;;;;;;;5.10;4.43;;;;;;;29.22;62.60;100246.31;5046999;28;20067;-73
2022/07/18 08:47:47;;;;;;;6.47;4.70;;;;;;;29.22;60.87;100251.75;5046891;28;20481;-73
2022/07/18 08:50:13;;;;;;;4.90;4.50;;;;;;;29.21;60.16;100250.97;5047757;28;20037;-73
2022/07/18 08:52:39;;;;;;;5.13;4.63;;;;;;;29.24;60.21;100249.63;5048675;28;20049;-74
2022/07/18 08:55:07;;;;;;;4.60;4.10;;;;;;;29.25;59.49;100245.84;5046963;28;20032;-72
2022/07/18 08:57:33;;;;;;;8.13;4.00;;;;;;;29.26;60.17;100248.31;4346488;28;10000718;-73
2022/07/18 08:59:59;;;;;;;5.00;4.53;;;;;;;29.27;60.07;100243.72;5047140;28;20033;-71
2022/07/18 09:02:28;;;;;;;6.57;4.45;;;;;;;29.31;61.10;100250.28;5046655;28;20048;-73
2022/07/18 09:04:53;;;;;;;4.63;4.30;;;;;;;29.33;61.23;100248.19;5046263;28;20551;-72
2022/07/18 09:07:25;;;;;;;6.32;4.88;;;;;;;29.38;60.91;100248.25;5047659;28;20053;-72
2022/07/18 09:09:54;;;;;;;9.57;4.75;;;;;;;29.40;60.34;100251.53;5026773;28;20102;-72
2022/07/18 09:12:20;;;;;;;6.55;4.47;;;;;;;29.45;60.26;100246.19;5027418;28;21662;-71
2022/07/18 09:14:46;;;;;;;6.20;4.55;;;;;;;29.50;59.98;100242.72;5049797;28;20032;-70
2022/07/18 09:17:14;;;;;;;6.18;4.28;;;;;;;29.57;59.43;100249.63;5050160;28;20033;-71
2022/07/18 09:19:55;;;;;;;5.78;4.50;;;;;;;29.68;59.10;100240.56;5049950;28;20028;-73
2022/07/18 09:22:23;;;;;;;5.90;4.63;;;;;;;29.75;58.00;100245.78;5046997;28;20080;-72
2022/07/18 09:25:08;;;;;;;6.50;4.45;;;;;;;29.74;57.59;100241.44;5030118;28;20036;-71
2022/07/18 09:27:45;;;;;;;6.65;4.03;;;;;;;29.79;58.27;100246.13;5045616;28;20041;-72
2022/07/18 09:30:35;;;;;;;7.63;4.60;;;;;;;29.93;58.16;100241.97;5028474;28;20037;-72
2022/07/18 09:33:04;;;;;;;;;;;;;;;30.03;57.21;100247.56;5045138;28;20029;-72
2022/07/18 09:35:33;;;;;;;5.65;4.00;;;;;;;30.09;56.92;100241.09;5031798;28;20234;-75
2022/07/18 09:38:10;;;;;;;13.27;4.50;;;;;;;30.15;56.43;100242.81;5029954;28;20394;-73
2022/07/18 09:40:50;;;;;;;4.70;4.32;;;;;;;30.25;56.82;100239.38;5045712;28;20125;-73
2022/07/18 09:43:19;;;;;;;6.93;4.35;;;;;;;30.28;56.27;100239.66;5044602;28;20035;-73
2022/07/18 09:45:51;;;;;;;7.05;4.97;;;;;;;30.32;55.81;100235.38;5043723;28;20486;-72
2022/07/18 09:48:22;;;;;;;4.65;4.25;;;;;;;30.34;56.01;100238.66;5049101;28;20461;-74
2022/07/18 09:50:58;;;;;;;4.38;4.05;;;;;;;30.38;55.69;100234.34;5047283;28;20377;-73
2022/07/18 09:53:38;;;;;;;6.25;4.30;;;;;;;30.38;55.29;100231.63;5042022;28;20029;-73
2022/07/18 09:56:12;;;;;;;5.93;4.80;;;;;;;30.44;55.88;100238.78;5041223;28;20049;-74
2022/07/18 09:58:49;;;;;;;7.10;4.60;;;;;;;30.48;55.33;100231.75;5042348;28;20474;-74
2022/07/18 10:01:15;;;;;;;4.53;4.20;;;;;;;30.55;55.08;100228.00;5042933;28;20513;-73
2022/07/18 10:03:41;;;;;;;9.73;4.32;;;;;;;30.57;54.59;100231.31;5043234;28;20069;-73
2022/07/18 10:06:06;;;;;;;4.88;3.92;;;;;;;30.62;53.60;100232.19;5043351;28;20038;-73
2022/07/18 10:08:35;;;;;;;5.65;4.40;;;;;;;30.71;53.55;100221.63;5042505;28;20163;-74
2022/07/18 10:11:02;;;;;;;5.05;4.55;;;;;;;30.72;54.29;100223.25;5042234;28;20424;-74
2022/07/18 10:13:30;;;;;;;4.35;3.95;;;;;;;30.75;54.75;100211.88;5041788;28;20533;-72
2022/07/18 10:15:56;;;;;;;5.50;3.95;;;;;;;30.82;54.12;100213.28;5045757;28;20034;-73
2022/07/18 10:18:29;;;;;;;11.98;5.43;;;;;;;30.93;54.19;100219.63;5041017;28;20394;-73
2022/07/18 10:21:15;;;;;;;4.60;3.70;;;;;;;31.03;53.85;100208.81;5039523;28;20412;-73
2022/07/18 10:23:47;;;;;;;4.32;3.90;;;;;;;31.13;54.06;100213.56;5044532;28;20041;-73
2022/07/18 10:26:16;;;;;;;7.55;3.90;;;;;;;31.18;53.36;100206.22;5043389;28;20491;-73
2022/07/18 10:29:00;;;;;;;6.35;4.20;;;;;;;31.20;52.71;100204.06;5042295;28;20029;-73
2022/07/18 10:31:37;;;;;;;4.78;4.40;;;;;;;31.21;53.02;100197.53;5036565;28;20045;-73
2022/07/18 10:34:06;;;;;;;6.35;4.22;;;;;;;31.22;52.25;100199.16;5041370;28;20037;-73
2022/07/18 10:36:35;;;;;;;5.57;4.05;;;;;;;31.25;51.98;100195.91;5020196;28;20034;-73
2022/07/18 10:39:08;;;;;;;6.38;4.25;;;;;;;31.23;51.43;100198.06;5027055;28;20436;-73
2022/07/18 10:41:43;;;;;;;6.25;4.13;;;;;;;31.26;50.88;100196.75;5043310;28;20029;-73
2022/07/18 10:44:29;;;;;;;6.97;4.80;;;;;;;31.30;51.07;100190.50;5041974;28;20041;-73
2022/07/18 10:47:20;;;;;;;5.15;4.63;;;;;;;31.37;51.40;100192.16;5039635;28;20382;-73
2022/07/18 10:49:46;;;;;;;4.70;4.30;;;;;;;31.42;50.40;100186.75;5048524;28;20170;-74
2022/07/18 10:52:30;;;;;;;5.07;4.28;;;;;;;31.46;49.79;100196.84;5040766;28;20143;-73
2022/07/18 10:55:19;;;;;;;4.88;4.18;;;;;;;31.42;49.16;100195.75;5044471;28;20508;-74
2022/07/18 10:57:49;;;;;;;5.40;4.97;;;;;;;31.38;49.39;100191.91;5040978;28;20132;-74
2022/07/18 11:00:27;;;;;;;5.00;4.53;;;;;;;31.35;49.31;100183.41;5042189;28;20032;-73
2022/07/18 11:03:13;;;;;;;5.10;4.80;;;;;;;31.30;49.49;100182.31;5041603;28;20040;-73
2022/07/18 11:05:50;;;;;;;5.55;4.43;;;;;;;31.30;49.42;100168.69;5042956;28;20033;-74
2022/07/18 11:08:18;;;;;;;5.43;4.93;;;;;;;31.26;49.66;100181.22;5041610;28;20409;-73
2022/07/18 11:10:44;;;;;;;9.50;5.15;;;;;;;31.26;49.63;100170.31;5042541;28;20060;-74
2022/07/18 11:13:28;;;;;;;6.10;5.60;;;;;;;31.29;50.58;100175.22;5046202;28;20384;-75
2022/07/18 11:16:04;;;;;;;5.25;4.85;;;;;;;31.40;50.69;100167.13;5042493;28;20663;-73
2022/07/18 11:18:55;;;;;;;6.30;5.70;;;;;;;31.45;49.77;100161.69;5040467;28;20381;-74
2022/07/18 11:21:24;;;;;;;5.93;5.15;;;;;;;31.47;50.65;100170.41;5042563;28;20461;-73
2022/07/18 11:23:52;;;;;;;5.40;4.95;;;;;;;31.52;50.18;100157.59;5038958;28;20474;-73
2022/07/18 11:26:20;;;;;;;6.15;5.65;;;;;;;31.60;50.23;100159.03;5024208;28;20029;-73